Time;durP1;ratioP1;P1;durP2;ratioP2;P2;SDS_P1;SDS_P2;PMS_P1;PMS_P2;Temp;Humidity;BMP_temperature;BMP_pressure;BME280_temperature;BME280_humidity;BME280_pressure;Samples;Min_cycle;Max_cycle;Signal;HPM_P1;HPM_P2
2022/06/27 00:02:52;;;;;;;6.93;2.90;;;15.30;99.90;;;;;;20883726;28;20029;-49
2022/06/27 00:12:55;;;;;;;11.55;3.00;;;15.40;99.90;;;;;;20898475;28;20032;-58
2022/06/27 00:23:01;;;;;;;10.23;2.80;;;15.40;99.90;;;;;;20897104;28;20044;-58
2022/06/27 00:33:03;;;;;;;16.80;3.13;;;15.40;99.90;;;;;;20896572;28;20029;-51
2022/06/27 00:43:07;;;;;;;6.97;2.22;;;15.40;99.90;;;;;;20879751;28;20396;-48
2022/06/27 00:53:12;;;;;;;5.82;3.47;;;15.40;99.90;;;;;;20895315;28;20045;-58
2022/06/27 01:03:14;;;;;;;10.15;3.33;;;15.50;99.90;;;;;;20895582;28;20037;-57
2022/06/27 01:13:17;;;;;;;5.57;2.83;;;15.80;99.90;;;;;;20898641;28;20037;-49
2022/06/27 01:23:20;;;;;;;6.95;3.03;;;15.80;99.90;;;;;;20975666;28;20037;-51
2022/06/27 01:33:22;;;;;;;7.53;3.42;;;15.70;99.90;;;;;;20974320;28;20036;-57
2022/06/27 01:43:25;;;;;;;9.32;3.53;;;15.70;99.90;;;;;;20974286;28;20037;-49
2022/06/27 01:53:29;;;;;;;6.30;2.78;;;15.60;99.90;;;;;;20965426;28;20111;-51
2022/06/27 02:03:32;;;;;;;6.10;2.40;;;15.70;99.90;;;;;;20889721;28;20107;-58
2022/06/27 02:13:34;;;;;;;5.28;2.30;;;15.70;99.90;;;;;;20905068;28;20048;-57
2022/06/27 02:23:38;;;;;;;11.65;2.67;;;15.60;99.90;;;;;;20887824;28;20131;-53
2022/06/27 02:33:43;;;;;;;9.35;2.20;;;15.40;99.90;;;;;;20887276;28;20362;-58
2022/06/27 02:43:51;;;;;;;12.05;3.03;;;15.40;99.90;;;;;;20885801;28;20036;-58
2022/06/27 02:54:05;;;;;;;9.10;2.03;;;15.30;99.90;;;;;;20885823;28;20364;-57
2022/06/27 03:04:31;;;;;;;8.60;2.35;;;15.10;99.90;;;;;;20891515;28;20049;-48
2022/06/27 03:14:34;;;;;;;6.47;2.53;;;15.30;99.90;;;;;;20900977;28;20056;-57
2022/06/27 03:24:37;;;;;;;7.05;2.13;;;15.20;99.90;;;;;;20967130;28;20561;-56
2022/06/27 03:34:40;;;;;;;16.17;3.00;;;15.20;99.90;;;;;;20966994;28;20568;-56
2022/06/27 03:44:52;;;;;;;8.27;2.67;;;15.20;99.90;;;;;;20966185;28;20041;-56
2022/06/27 03:54:55;;;;;;;4.38;1.38;;;15.40;99.90;;;;;;20958813;28;20549;-49
2022/06/27 04:04:58;;;;;;;7.22;2.10;;;16.20;99.90;;;;;;20899074;28;20442;-56
2022/06/27 04:15:01;;;;;;;6.32;2.03;;;16.20;99.90;;;;;;20898113;28;20052;-56
2022/06/27 04:25:33;;;;;;;5.53;2.10;;;16.20;99.90;;;;;;20822728;28;20570;-50
2022/06/27 04:35:36;;;;;;;7.45;2.25;;;16.20;99.90;;;;;;20822255;28;20041;-56
2022/06/27 04:45:42;;;;;;;7.18;2.30;;;16.20;99.90;;;;;;20821447;28;20386;-55
2022/06/27 04:55:57;;;;;;;9.40;2.30;;;16.40;99.90;;;;;;20856363;28;20533;-50
2022/06/27 05:06:01;;;;;;;6.88;2.63;;;16.60;99.90;;;;;;20976598;28;20033;-51
2022/06/27 05:16:04;;;;;;;6.05;1.98;;;16.70;99.90;;;;;;20976359;28;20506;-50
2022/06/27 05:26:09;;;;;;;6.28;1.95;;;17.00;99.90;;;;;;20975373;28;20102;-50
2022/06/27 05:36:12;;;;;;;6.55;1.92;;;17.20;99.90;;;;;;20975078;28;20048;-53
2022/06/27 05:46:15;;;;;;;6.57;1.80;;;17.40;99.90;;;;;;20973913;28;20048;-55
2022/06/27 05:56:46;;;;;;;3.67;1.40;;;17.80;99.90;;;;;;20956852;28;20106;-51
2022/06/27 06:06:49;;;;;;;5.72;1.48;;;18.30;99.90;;;;;;20972131;28;20044;-51
2022/06/27 06:16:52;;;;;;;9.20;2.25;;;19.00;99.90;;;;;;20969928;28;20052;-58
2022/06/27 06:27:00;;;;;;;6.75;2.22;;;21.80;99.90;;;;;;20954117;28;20036;-57
2022/06/27 06:37:03;;;;;;;5.35;1.52;;;24.40;98.70;;;;;;20970361;28;20066;-58
2022/06/27 06:47:06;;;;;;;13.00;2.20;;;26.00;94.90;;;;;;20969108;28;20028;-59
2022/06/27 06:57:23;;;;;;;9.82;1.80;;;27.40;91.80;;;;;;20951886;28;20032;-59
2022/06/27 07:07:25;;;;;;;5.70;1.42;;;28.70;85.80;;;;;;20967920;28;20037;-60
2022/06/27 07:17:28;;;;;;;6.05;1.80;;;29.30;89.00;;;;;;20967159;28;20490;-58
2022/06/27 07:27:32;;;;;;;11.00;2.65;;;30.60;83.80;;;;;;20966890;28;20048;-57
2022/06/27 07:37:34;;;;;;;;;;;32.20;76.00;;;;;;20967146;28;20484;-58
2022/06/27 07:47:37;;;;;;;9.02;2.42;;;32.20;75.50;;;;;;20966279;28;19912;-59
2022/06/27 07:57:43;;;;;;;11.13;2.75;;;32.00;75.00;;;;;;20965699;28;20041;-59
2022/06/27 08:07:46;;;;;;;8.23;2.60;;;32.60;74.50;;;;;;20965162;28;20387;-59
2022/06/27 08:17:49;;;;;;;10.23;3.35;;;32.60;79.60;;;;;;20922075;28;20104;-59
2022/06/27 08:27:53;;;;;;;12.03;2.50;;;32.20;75.30;;;;;;20882097;28;20463;-59
2022/06/27 08:37:58;;;;;;;19.17;3.03;;;31.00;78.70;;;;;;20887685;28;20029;-59
2022/06/27 08:48:06;;;;;;;9.15;2.60;;;31.00;76.30;;;;;;20896030;28;20345;-57
2022/06/27 08:58:11;;;;;;;9.95;2.80;;;31.30;73.40;;;;;;20889250;28;20032;-59
2022/06/27 09:08:13;;;;;;;7.57;2.63;;;31.10;75.70;;;;;;20894077;28;20399;-60
2022/06/27 09:18:20;;;;;;;10.35;2.80;;;31.30;77.50;;;;;;20939725;28;20396;-59
2022/06/27 09:28:33;;;;;;;10.32;2.83;;;31.40;78.80;;;;;;20975768;28;20049;-59
2022/06/27 09:38:43;;;;;;;9.02;2.70;;;31.20;79.50;;;;;;20974971;28;20044;-59
2022/06/27 09:48:46;;;;;;;9.75;2.70;;;31.60;76.10;;;;;;20973909;28;20105;-59
2022/06/27 09:58:50;;;;;;;12.63;2.93;;;31.20;79.50;;;;;;20920650;28;20483;-59
2022/06/27 10:08:53;;;;;;;7.00;2.88;;;31.10;77.80;;;;;;20889278;28;20037;-59
2022/06/27 10:19:03;;;;;;;11.80;2.40;;;31.40;79.60;;;;;;20888854;28;20040;-59
2022/06/27 10:29:27;;;;;;;8.63;2.75;;;31.20;82.60;;;;;;20887757;28;20076;-59
2022/06/27 10:39:30;;;;;;;13.02;2.65;;;30.50;76.50;;;;;;20886488;28;20500;-59
2022/06/27 10:49:32;;;;;;;8.30;2.65;;;30.60;78.60;;;;;;20886483;28;20064;-59
2022/06/27 10:59:41;;;;;;;8.05;2.30;;;31.20;73.10;;;;;;20938678;28;20395;-59
2022/06/27 11:09:47;;;;;;;12.13;2.95;;;31.30;80.30;;;;;;20967762;28;20097;-60
2022/06/27 11:20:17;;;;;;;12.43;2.55;;;31.70;78.40;;;;;;20908711;28;20099;-56
2022/06/27 11:41:00;;;;;;;8.75;3.08;;;31.30;78.70;;;;;;20883435;28;20033;-60
2022/06/27 11:51:24;;;;;;;9.67;2.60;;;31.50;76.00;;;;;;20883631;28;20049;-60
2022/06/27 12:01:28;;;;;;;10.03;2.90;;;31.80;79.00;;;;;;20877629;28;20377;-59
2022/06/27 12:11:32;;;;;;;9.73;2.83;;;31.70;75.60;;;;;;20888165;28;20526;-61
2022/06/27 12:21:35;;;;;;;14.30;3.77;;;31.80;75.40;;;;;;20967780;28;20048;-60
2022/06/27 12:31:39;;;;;;;15.82;3.72;;;32.20;74.50;;;;;;20979689;28;20491;-60
2022/06/27 12:41:42;;;;;;;9.95;2.90;;;32.20;70.80;;;;;;20979072;28;20109;-60
2022/06/27 12:51:44;;;;;;;12.02;2.42;;;32.00;71.10;;;;;;20978862;28;20036;-60
2022/06/27 13:01:48;;;;;;;10.40;2.50;;;31.90;69.60;;;;;;20900413;28;20394;-60
2022/06/27 13:11:50;;;;;;;14.73;3.47;;;31.60;73.60;;;;;;20894284;28;20091;-60
2022/06/27 13:21:53;;;;;;;12.68;3.63;;;32.00;72.90;;;;;;20968859;28;20102;-60
2022/06/27 13:31:56;;;;;;;14.65;2.90;;;32.50;73.60;;;;;;20975441;28;20078;-61
2022/06/27 13:42:03;;;;;;;12.35;3.00;;;32.50;72.00;;;;;;20974130;28;20090;-61
2022/06/27 13:52:07;;;;;;;18.20;3.70;;;32.50;71.10;;;;;;20957018;28;20094;-61
2022/06/27 14:02:10;;;;;;;15.18;4.13;;;32.50;70.80;;;;;;20972441;28;20052;-62
2022/06/27 14:12:13;;;;;;;9.85;2.95;;;32.70;68.90;;;;;;20814949;28;20570;-62
2022/06/27 14:22:16;;;;;;;18.50;4.65;;;32.80;70.80;;;;;;20797758;28;20033;-61
2022/06/27 14:32:19;;;;;;;14.33;3.27;;;33.10;69.80;;;;;;20796583;28;20049;-61
2022/06/27 14:42:22;;;;;;;12.80;3.67;;;33.20;68.80;;;;;;20820394;28;20454;-61
2022/06/27 14:52:25;;;;;;;14.13;3.37;;;33.50;67.80;;;;;;20969208;28;20487;-60
2022/06/27 15:02:28;;;;;;;15.80;4.05;;;33.60;66.70;;;;;;20951892;28;20078;-60
2022/06/27 15:12:31;;;;;;;10.80;3.87;;;33.70;67.90;;;;;;20968401;28;20037;-61
2022/06/27 15:22:34;;;;;;;13.80;3.33;;;34.10;67.20;;;;;;20967600;28;20168;-60
2022/06/27 15:32:37;;;;;;;13.30;3.33;;;34.10;66.00;;;;;;20967098;28;20395;-57
2022/06/27 15:42:39;;;;;;;13.60;3.88;;;33.80;65.40;;;;;;20966471;28;20044;-60
2022/06/27 15:52:42;;;;;;;15.87;3.50;;;33.30;68.00;;;;;;20980554;28;20063;-60
2022/06/27 16:02:44;;;;;;;16.43;3.20;;;33.30;65.70;;;;;;20899525;28;20037;-59
2022/06/27 16:12:49;;;;;;;14.23;2.88;;;32.00;66.50;;;;;;20900553;28;20399;-59
2022/06/27 16:22:51;;;;;;;10.75;3.08;;;30.00;71.10;;;;;;20981003;28;20048;-58
2022/06/27 16:32:54;;;;;;;9.25;2.17;;;28.80;72.10;;;;;;20979184;28;20395;-58
2022/06/27 16:43:14;;;;;;;16.70;3.33;;;27.90;74.00;;;;;;20979019;28;20036;-59
2022/06/27 16:53:18;;;;;;;16.50;2.08;;;27.10;73.30;;;;;;20955378;28;20025;-54
2022/06/27 17:03:21;;;;;;;13.30;2.63;;;25.10;77.70;;;;;;20894118;28;20041;-59
2022/06/27 17:13:25;;;;;;;12.50;1.83;;;23.40;83.30;;;;;;20894066;28;20122;-49
2022/06/27 17:23:29;;;;;;;15.10;2.78;;;22.50;86.80;;;;;;20893637;28;20041;-58
2022/06/27 17:33:31;;;;;;;11.48;2.40;;;21.90;88.90;;;;;;20892757;28;20041;-57
2022/06/27 17:43:33;;;;;;;13.43;2.40;;;21.50;90.70;;;;;;20891747;28;20041;-50
2022/06/27 17:53:36;;;;;;;13.45;2.45;;;21.10;91.50;;;;;;20890842;28;20487;-52
2022/06/27 18:03:38;;;;;;;12.20;3.13;;;20.70;92.80;;;;;;20890514;28;20024;-59
2022/06/27 18:13:41;;;;;;;10.88;2.30;;;20.30;93.10;;;;;;20897468;28;20045;-58
2022/06/27 18:23:44;;;;;;;12.85;2.08;;;19.90;93.70;;;;;;20971171;28;20041;-58
2022/06/27 18:33:46;;;;;;;11.35;2.60;;;19.60;94.20;;;;;;20968711;28;20390;-59
2022/06/27 18:43:49;;;;;;;8.88;2.67;;;19.30;94.50;;;;;;20969548;28;20033;-59
2022/06/27 18:53:52;;;;;;;8.23;2.55;;;19.20;94.10;;;;;;20957825;28;20045;-58
2022/06/27 19:03:54;;;;;;;12.30;2.47;;;19.00;94.70;;;;;;20885404;28;20098;-58
2022/06/27 19:13:57;;;;;;;9.88;1.98;;;18.50;94.80;;;;;;20885298;28;20037;-57
2022/06/27 19:24:03;;;;;;;10.13;2.65;;;18.30;95.00;;;;;;20883962;28;20557;-56
2022/06/27 19:34:06;;;;;;;8.75;2.35;;;17.90;95.40;;;;;;20883652;28;20091;-57
2022/06/27 19:44:09;;;;;;;15.63;2.72;;;17.60;95.00;;;;;;20883961;28;20040;-57
2022/06/27 19:54:13;;;;;;;16.67;1.85;;;17.50;94.50;;;;;;20891996;28;20041;-53
2022/06/27 20:04:16;;;;;;;10.55;2.17;;;17.40;94.40;;;;;;20965887;28;20033;-58
2022/06/27 20:14:19;;;;;;;20.55;2.45;;;17.20;95.20;;;;;;20965741;28;20451;-57
2022/06/27 20:24:22;;;;;;;15.75;2.78;;;17.00;94.60;;;;;;20983016;28;20475;-55
2022/06/27 20:34:25;;;;;;;16.30;2.95;;;16.90;94.60;;;;;;20971528;28;20082;-57
2022/06/27 20:44:29;;;;;;;17.45;2.63;;;16.70;94.20;;;;;;20979523;28;20458;-57
2022/06/27 20:54:33;;;;;;;15.70;2.80;;;16.60;93.80;;;;;;20964989;28;20257;-57
2022/06/27 21:04:37;;;;;;;13.70;2.65;;;16.60;93.30;;;;;;20977804;28;20040;-57
2022/06/27 21:14:40;;;;;;;15.05;2.97;;;16.60;93.20;;;;;;20947699;28;20037;-57
2022/06/27 21:24:44;;;;;;;15.23;2.97;;;16.70;92.90;;;;;;20893918;28;20090;-57
2022/06/27 21:34:46;;;;;;;17.50;2.85;;;16.60;93.00;;;;;;20934772;28;20037;-56
2022/06/27 21:44:49;;;;;;;18.33;2.35;;;16.50;93.30;;;;;;20891662;28;20785;-58
2022/06/27 21:54:51;;;;;;;15.43;2.42;;;16.40;93.30;;;;;;20910559;28;20058;-57
2022/06/27 22:04:53;;;;;;;20.60;2.67;;;16.40;93.60;;;;;;20972915;28;20458;-58
2022/06/27 22:14:56;;;;;;;14.77;3.05;;;16.40;93.00;;;;;;20972009;28;20200;-57
2022/06/27 22:24:59;;;;;;;16.13;2.40;;;16.40;93.20;;;;;;20972239;28;20429;-58
2022/06/27 22:35:02;;;;;;;12.30;2.30;;;16.50;93.40;;;;;;20971547;28;20471;-57
2022/06/27 22:45:06;;;;;;;10.93;3.17;;;16.60;93.70;;;;;;20969802;28;20406;-58
2022/06/27 22:55:08;;;;;;;20.88;3.35;;;17.10;93.30;;;;;;20946313;28;20037;-57
2022/06/27 23:05:11;;;;;;;17.48;3.35;;;17.40;93.90;;;;;;20885956;28;20041;-54
2022/06/27 23:15:13;;;;;;;15.30;3.45;;;17.40;94.80;;;;;;20885547;28;20146;-49
2022/06/27 23:25:16;;;;;;;15.30;2.67;;;17.30;95.40;;;;;;20884865;28;20094;-57
2022/06/27 23:35:28;;;;;;;12.27;2.80;;;17.20;96.00;;;;;;20898339;28;20041;-57
2022/06/27 23:45:31;;;;;;;14.25;3.17;;;17.00;96.60;;;;;;20884539;28;20067;-49
2022/06/27 23:55:33;;;;;;;24.20;4.38;;;16.90;97.00;;;;;;20883406;28;20366;-50
